Time;durP1;ratioP1;P1;durP2;ratioP2;P2;SDS_P1;SDS_P2;PMS_P1;PMS_P2;Temp;Humidity;BMP_temperature;BMP_pressure;BME280_temperature;BME280_humidity;BME280_pressure;Samples;Min_cycle;Max_cycle;Signal;HPM_P1;HPM_P2
2021/12/08 00:02:29;;;;;;;153.15;91.25;;;4.60;92.50;;;;;;4934596;29;20393;-71
2021/12/08 00:05:35;;;;;;;145.77;88.55;;;4.40;92.40;;;;;;4934630;29;20059;-72
2021/12/08 00:08:45;;;;;;;142.48;88.65;;;4.40;92.30;;;;;;4934424;29;20047;-72
2021/12/08 00:15:12;;;;;;;145.90;86.90;;;4.20;92.50;;;;;;4934459;29;20059;-71
2021/12/08 00:18:25;;;;;;;141.30;85.35;;;4.00;92.50;;;;;;4934246;29;20066;-71
2021/12/08 00:21:29;;;;;;;148.73;86.25;;;4.00;92.50;;;;;;4934135;29;20051;-71
2021/12/08 00:24:33;;;;;;;136.40;86.85;;;3.90;92.80;;;;;;4934015;29;20058;-71
2021/12/08 00:27:37;;;;;;;144.23;89.75;;;4.00;93.00;;;;;;4933866;29;20043;-71
2021/12/08 00:30:43;;;;;;;155.70;91.28;;;3.90;92.50;;;;;;4934067;29;20043;-71
2021/12/08 00:33:47;;;;;;;148.05;88.30;;;4.00;92.60;;;;;;4934204;29;20121;-71
2021/12/08 00:36:56;;;;;;;145.02;88.93;;;4.00;92.50;;;;;;4933150;29;20058;-71
2021/12/08 00:40:00;;;;;;;153.90;90.93;;;4.10;92.30;;;;;;4934117;29;20051;-71
2021/12/08 00:43:06;;;;;;;147.55;88.53;;;4.00;92.70;;;;;;4933927;29;20047;-71
2021/12/08 00:46:10;;;;;;;145.18;85.43;;;4.00;92.60;;;;;;4934061;29;20047;-72
2021/12/08 00:49:16;;;;;;;133.82;81.45;;;4.10;92.60;;;;;;4934030;29;20046;-72
2021/12/08 00:52:20;;;;;;;139.25;79.00;;;4.20;92.40;;;;;;4933876;29;20070;-72
2021/12/08 00:55:26;;;;;;;124.32;75.15;;;4.20;92.20;;;;;;4921935;29;20408;-72
2021/12/08 00:58:30;;;;;;;123.00;71.07;;;4.00;91.80;;;;;;4933641;29;20055;-72
2021/12/08 01:01:34;;;;;;;117.85;65.82;;;4.10;92.20;;;;;;4935185;29;20503;-72
2021/12/08 01:04:38;;;;;;;108.75;61.10;;;4.80;92.30;;;;;;4940185;29;20066;-72
2021/12/08 01:07:43;;;;;;;96.78;55.63;;;4.30;91.80;;;;;;4940122;29;20046;-72
2021/12/08 01:10:49;;;;;;;93.65;54.35;;;4.40;91.20;;;;;;4939945;29;20539;-72
2021/12/08 01:13:54;;;;;;;94.10;54.72;;;4.50;90.90;;;;;;4940035;29;20397;-72
2021/12/08 01:16:58;;;;;;;92.78;54.00;;;4.50;90.80;;;;;;4940059;29;20046;-72
2021/12/08 01:20:03;;;;;;;94.20;54.10;;;4.60;90.70;;;;;;4940160;29;20116;-72
2021/12/08 01:23:07;;;;;;;91.93;52.95;;;4.60;90.60;;;;;;4940140;29;20358;-72
2021/12/08 01:26:12;;;;;;;95.65;53.38;;;4.60;90.50;;;;;;4940131;29;20051;-72
2021/12/08 01:29:16;;;;;;;85.10;51.35;;;4.60;90.40;;;;;;4940013;29;20051;-72
2021/12/08 01:32:20;;;;;;;81.97;49.65;;;4.50;90.50;;;;;;4940038;29;20062;-72
2021/12/08 01:35:25;;;;;;;83.03;47.75;;;4.50;90.50;;;;;;4939667;29;20070;-72
2021/12/08 01:38:31;;;;;;;76.80;44.80;;;4.40;90.60;;;;;;4939833;29;20067;-72
2021/12/08 01:41:36;;;;;;;69.50;42.85;;;4.30;90.90;;;;;;4939787;29;20046;-72
2021/12/08 01:48:04;;;;;;;73.18;41.53;;;4.10;90.80;;;;;;4939850;29;20055;-72
2021/12/08 01:51:11;;;;;;;64.63;37.97;;;3.80;91.00;;;;;;4939785;29;20388;-72
2021/12/08 01:54:16;;;;;;;65.28;39.60;;;3.80;91.60;;;;;;4939802;29;20051;-72
2021/12/08 01:57:20;;;;;;;68.80;38.17;;;3.90;91.60;;;;;;4939720;29;20078;-72
2021/12/08 02:00:31;;;;;;;72.05;38.25;;;4.00;91.40;;;;;;4938990;29;20051;-72
2021/12/08 02:03:36;;;;;;;67.00;38.58;;;3.90;91.60;;;;;;4939893;29;20051;-72
2021/12/08 02:06:44;;;;;;;66.18;38.17;;;4.00;92.00;;;;;;4938820;29;20051;-72
2021/12/08 02:09:49;;;;;;;58.47;33.17;;;3.80;92.10;;;;;;4939531;29;20051;-72
2021/12/08 02:12:54;;;;;;;53.85;30.00;;;3.80;92.40;;;;;;4938814;29;20503;-72
2021/12/08 02:16:00;;;;;;;48.38;28.05;;;3.80;91.50;;;;;;4936760;29;20047;-72
2021/12/08 02:19:06;;;;;;;50.85;28.15;;;3.70;91.40;;;;;;4936453;29;20075;-74
2021/12/08 02:22:10;;;;;;;57.40;28.88;;;3.60;91.60;;;;;;4936177;29;20051;-73
2021/12/08 02:25:21;;;;;;;39.80;23.40;;;3.60;91.80;;;;;;4936433;29;20095;-71
2021/12/08 02:28:25;;;;;;;33.95;22.55;;;3.70;91.50;;;;;;4936323;29;20055;-73
2021/12/08 02:48:28;;;;;;;31.75;18.00;;;4.10;90.30;;;;;;4935850;29;20047;-73
2021/12/08 02:51:33;;;;;;;37.75;21.65;;;4.10;90.00;;;;;;4935084;29;20076;-73
2021/12/08 02:54:45;;;;;;;31.25;20.52;;;4.10;90.80;;;;;;4935802;29;20262;-73
2021/12/08 02:57:49;;;;;;;33.05;20.50;;;4.10;91.60;;;;;;4935618;29;20055;-73
2021/12/08 03:00:57;;;;;;;33.40;20.40;;;4.00;91.30;;;;;;4935747;29;20404;-73
2021/12/08 03:04:02;;;;;;;39.88;20.65;;;3.90;91.30;;;;;;4935801;29;20051;-73
2021/12/08 03:07:06;;;;;;;35.85;22.42;;;3.80;91.40;;;;;;4935654;29;20394;-73
2021/12/08 03:10:17;;;;;;;38.08;22.10;;;3.80;91.70;;;;;;4935586;29;20043;-73
2021/12/08 03:13:35;;;;;;;45.03;21.70;;;3.70;91.90;;;;;;4935962;29;20046;-73
2021/12/08 03:16:45;;;;;;;32.45;20.88;;;3.70;91.70;;;;;;4935591;29;20303;-73
2021/12/08 03:19:49;;;;;;;37.17;18.45;;;3.60;92.00;;;;;;4935586;29;20047;-73
2021/12/08 03:22:59;;;;;;;30.20;18.35;;;3.70;91.60;;;;;;4934531;29;20043;-73
2021/12/08 03:26:06;;;;;;;32.38;18.27;;;3.70;91.50;;;;;;4934977;29;20057;-73
2021/12/08 03:29:21;;;;;;;35.70;17.65;;;3.80;91.00;;;;;;4934559;29;20059;-73
2021/12/08 03:32:38;;;;;;;28.25;14.68;;;3.80;91.30;;;;;;4935099;29;20063;-73
2021/12/08 03:35:43;;;;;;;30.70;15.00;;;3.90;90.70;;;;;;4933835;29;20075;-73
2021/12/08 03:38:47;;;;;;;31.30;17.50;;;3.80;90.70;;;;;;4934946;29;20055;-73
2021/12/08 03:41:51;;;;;;;35.35;19.95;;;3.80;91.80;;;;;;4934006;29;20396;-73
2021/12/08 03:45:00;;;;;;;31.25;18.02;;;3.80;92.20;;;;;;4934674;29;20043;-73
2021/12/08 03:48:08;;;;;;;30.77;16.98;;;3.70;92.30;;;;;;4935072;29;20055;-73
2021/12/08 03:51:12;;;;;;;33.50;16.65;;;3.70;92.40;;;;;;4934956;29;20128;-73
2021/12/08 03:54:16;;;;;;;24.88;16.05;;;3.70;91.30;;;;;;4935003;29;20416;-73
2021/12/08 03:57:20;;;;;;;27.15;16.98;;;3.80;91.50;;;;;;4934876;29;20055;-73
2021/12/08 04:00:29;;;;;;;33.42;17.10;;;3.80;91.60;;;;;;4934794;29;20050;-73
2021/12/08 04:03:36;;;;;;;26.83;15.57;;;3.80;91.30;;;;;;4933962;29;20067;-73
2021/12/08 04:06:51;;;;;;;29.17;16.20;;;3.80;91.00;;;;;;4934754;29;20527;-73
2021/12/08 04:09:56;;;;;;;31.73;16.77;;;3.90;91.30;;;;;;4934505;29;20043;-73
2021/12/08 04:13:00;;;;;;;31.80;17.67;;;4.00;91.20;;;;;;4934259;29;20514;-73
2021/12/08 04:16:08;;;;;;;31.65;16.55;;;3.80;90.90;;;;;;4934427;29;20055;-73
2021/12/08 04:19:13;;;;;;;31.10;17.50;;;3.80;91.00;;;;;;4934254;29;20070;-72
2021/12/08 04:22:30;;;;;;;34.75;17.60;;;4.00;91.20;;;;;;4933316;29;20047;-73
2021/12/08 04:25:37;;;;;;;35.50;19.35;;;4.10;91.40;;;;;;4934468;29;20059;-73
2021/12/08 04:28:41;;;;;;;31.98;18.88;;;4.10;91.40;;;;;;4934364;29;20042;-73
2021/12/08 04:31:47;;;;;;;29.50;17.73;;;3.90;91.40;;;;;;4934256;29;20055;-73
2021/12/08 04:34:54;;;;;;;34.80;17.27;;;3.80;91.70;;;;;;4934089;29;20058;-73
2021/12/08 04:38:03;;;;;;;32.50;16.15;;;3.80;91.70;;;;;;4933232;29;20416;-73
2021/12/08 04:41:13;;;;;;;29.30;16.58;;;3.90;91.40;;;;;;4933770;29;20396;-73
2021/12/08 04:47:34;;;;;;;33.85;16.27;;;3.90;91.60;;;;;;4933888;29;20055;-73
2021/12/08 05:10:36;;;;;;;21.55;11.70;;;3.90;91.80;;;;;;4934008;29;20063;-73
2021/12/08 05:13:43;;;;;;;19.77;11.25;;;3.80;91.30;;;;;;4933645;29;20039;-73
2021/12/08 05:16:51;;;;;;;16.88;9.60;;;3.60;91.30;;;;;;4933588;29;20042;-73
2021/12/08 05:19:58;;;;;;;14.63;8.45;;;3.60;91.30;;;;;;4933460;29;20063;-72
2021/12/08 05:23:11;;;;;;;13.93;8.98;;;3.70;91.60;;;;;;4932794;29;20047;-72
2021/12/08 05:26:36;;;;;;;14.68;8.10;;;3.90;90.70;;;;;;4933599;29;20055;-72
2021/12/08 05:29:55;;;;;;;13.98;8.07;;;4.10;90.50;;;;;;4933538;29;20432;-72
2021/12/08 05:33:00;;;;;;;15.55;8.52;;;4.30;90.30;;;;;;4933271;29;20054;-72
2021/12/08 05:36:04;;;;;;;16.50;8.90;;;4.30;89.70;;;;;;4933341;29;20400;-72
2021/12/08 05:39:13;;;;;;;17.70;9.73;;;4.30;89.60;;;;;;4933385;29;20515;-72
2021/12/08 05:42:23;;;;;;;15.82;8.75;;;4.20;90.90;;;;;;4933541;29;20042;-72
2021/12/08 05:45:27;;;;;;;17.23;9.40;;;4.20;90.90;;;;;;4933493;29;20396;-72
2021/12/08 05:48:33;;;;;;;16.63;9.45;;;4.20;90.70;;;;;;4934180;29;20044;-72
2021/12/08 05:51:37;;;;;;;17.95;9.27;;;4.20;90.30;;;;;;4936957;29;20496;-72
2021/12/08 05:54:44;;;;;;;16.45;10.23;;;4.10;90.60;;;;;;4937077;29;20058;-72
2021/12/08 05:57:48;;;;;;;18.73;10.63;;;4.10;91.20;;;;;;4936946;29;20070;-73
2021/12/08 06:00:58;;;;;;;19.52;10.23;;;4.10;91.70;;;;;;4936808;29;20059;-73
2021/12/08 06:04:04;;;;;;;19.30;10.18;;;4.10;90.90;;;;;;4936747;29;20408;-72
2021/12/08 06:07:09;;;;;;;17.48;9.55;;;4.20;91.20;;;;;;4936932;29;20046;-72
2021/12/08 06:10:24;;;;;;;15.50;9.15;;;4.10;91.10;;;;;;4936765;29;20506;-74
2021/12/08 06:13:29;;;;;;;16.48;8.02;;;4.20;90.80;;;;;;4936956;29;20120;-73
2021/12/08 06:16:35;;;;;;;12.82;7.60;;;4.20;89.90;;;;;;4936569;29;20050;-73
2021/12/08 06:19:41;;;;;;;18.92;8.73;;;4.30;89.80;;;;;;4936474;29;20062;-73
2021/12/08 06:22:48;;;;;;;14.82;8.43;;;4.50;90.90;;;;;;4936369;29;20047;-72
2021/12/08 06:25:52;;;;;;;14.55;8.35;;;4.60;91.30;;;;;;4935264;29;20038;-73
2021/12/08 06:28:58;;;;;;;12.93;8.50;;;4.70;91.50;;;;;;4936400;29;20066;-73
2021/12/08 06:32:05;;;;;;;17.13;9.70;;;4.80;91.20;;;;;;4936113;29;20046;-72
2021/12/08 06:35:14;;;;;;;19.88;12.10;;;4.90;91.30;;;;;;4935984;29;20141;-72
2021/12/08 06:38:20;;;;;;;25.08;13.93;;;5.00;91.50;;;;;;4936299;29;20042;-72
2021/12/08 06:41:33;;;;;;;32.75;17.23;;;4.90;91.30;;;;;;4935836;29;20043;-74
2021/12/08 06:44:40;;;;;;;30.00;16.38;;;4.80;91.40;;;;;;4936326;29;20042;-73
2021/12/08 06:47:46;;;;;;;25.73;14.65;;;4.80;91.60;;;;;;4936212;29;20503;-73
2021/12/08 06:50:54;;;;;;;27.52;13.80;;;4.80;92.10;;;;;;4936260;29;20072;-74
2021/12/08 06:54:07;;;;;;;21.52;13.45;;;4.80;92.10;;;;;;4935680;29;20050;-72
2021/12/08 06:57:20;;;;;;;25.30;12.63;;;4.90;92.50;;;;;;4936005;29;20404;-73
2021/12/08 07:04:30;;;;;;;26.58;11.88;;;5.00;92.10;;;;;;4936354;29;20043;-73
2021/12/08 07:07:36;;;;;;;24.02;12.55;;;4.90;92.10;;;;;;4935625;29;20042;-73
2021/12/08 07:10:44;;;;;;;19.27;11.57;;;4.90;92.50;;;;;;4935436;29;20051;-72
2021/12/08 07:13:53;;;;;;;23.50;11.52;;;4.90;92.10;;;;;;4934811;29;20047;-72
2021/12/08 07:17:03;;;;;;;24.20;14.38;;;5.00;92.10;;;;;;4935455;29;20039;-71
2021/12/08 07:20:25;;;;;;;29.75;16.52;;;5.10;92.00;;;;;;4935260;29;20436;-73
2021/12/08 07:23:39;;;;;;;16.55;8.75;;;5.10;92.00;;;;;;4935317;29;20043;-74
2021/12/08 07:26:43;;;;;;;15.93;9.75;;;5.30;90.80;;;;;;4935258;29;20511;-73
2021/12/08 07:29:48;;;;;;;27.60;14.80;;;5.20;90.90;;;;;;4935067;29;20043;-72
2021/12/08 07:32:53;;;;;;;29.05;13.32;;;5.10;91.30;;;;;;4934456;29;20054;-73
2021/12/08 07:36:01;;;;;;;32.42;12.50;;;5.30;91.60;;;;;;4934723;29;20058;-71
2021/12/08 07:39:14;;;;;;;23.70;10.65;;;5.30;91.20;;;;;;4935007;29;20059;-72
2021/12/08 07:42:27;;;;;;;17.83;9.73;;;5.50;91.10;;;;;;4934291;29;20050;-73
2021/12/08 07:45:43;;;;;;;19.02;10.60;;;5.50;91.00;;;;;;4934411;29;20055;-73
2021/12/08 07:49:11;;;;;;;21.08;11.73;;;5.60;91.00;;;;;;4934689;29;20051;-73
2021/12/08 07:52:33;;;;;;;19.27;10.98;;;5.80;91.10;;;;;;4934632;29;20045;-72
2021/12/08 07:55:44;;;;;;;24.60;10.75;;;5.80;91.80;;;;;;4923046;29;20067;-73
2021/12/08 07:58:53;;;;;;;16.48;10.32;;;6.00;91.50;;;;;;4935097;29;20067;-72
2021/12/08 08:02:06;;;;;;;22.55;10.40;;;6.10;91.10;;;;;;4934823;29;20043;-72
2021/12/08 08:05:12;;;;;;;18.70;10.25;;;6.30;90.10;;;;;;4934579;29;20066;-72
2021/12/08 08:08:18;;;;;;;22.80;10.05;;;6.50;89.90;;;;;;4934512;29;20058;-74
2021/12/08 08:11:30;;;;;;;16.73;10.05;;;6.50;88.90;;;;;;4934464;29;20055;-72
2021/12/08 08:14:39;;;;;;;21.88;10.50;;;6.70;89.10;;;;;;4934120;29;20047;-72
2021/12/08 08:17:46;;;;;;;17.92;10.52;;;6.80;88.70;;;;;;4934427;29;20039;-73
2021/12/08 08:20:54;;;;;;;26.67;12.80;;;6.90;88.90;;;;;;4933563;29;20423;-72
2021/12/08 08:24:00;;;;;;;19.35;10.90;;;7.10;89.30;;;;;;4934148;29;20055;-73
2021/12/08 08:27:08;;;;;;;22.70;10.65;;;7.20;88.20;;;;;;4934182;29;20051;-67
2021/12/08 08:30:18;;;;;;;19.10;10.52;;;7.40;86.90;;;;;;4933268;29;20043;-69
2021/12/08 08:33:23;;;;;;;21.77;12.05;;;7.60;87.00;;;;;;4933879;29;20050;-69
2021/12/08 08:36:33;;;;;;;21.40;11.48;;;7.70;87.20;;;;;;4932772;29;20456;-68
2021/12/08 08:39:43;;;;;;;17.92;11.70;;;7.90;87.20;;;;;;4933909;29;20063;-68
2021/12/08 08:42:50;;;;;;;20.10;10.68;;;8.00;86.70;;;;;;4933714;29;20042;-67
2021/12/08 08:46:11;;;;;;;21.05;14.30;;;8.20;87.20;;;;;;4933682;29;20050;-69
2021/12/08 08:49:22;;;;;;;27.08;15.40;;;8.30;87.30;;;;;;4933606;29;20042;-67
2021/12/08 08:52:34;;;;;;;23.58;8.07;;;8.40;86.00;;;;;;4933968;29;20046;-67
2021/12/08 08:55:51;;;;;;;15.85;7.15;;;8.50;83.00;;;;;;4934197;29;20042;-68
2021/12/08 08:59:01;;;;;;;10.68;5.90;;;8.60;82.80;;;;;;4934064;29;20163;-68
2021/12/08 09:02:08;;;;;;;6.22;3.95;;;8.70;82.40;;;;;;4933493;29;20055;-69
2021/12/08 09:05:21;;;;;;;6.55;3.67;;;8.80;79.70;;;;;;4933677;29;20051;-68
2021/12/08 09:08:27;;;;;;;7.35;4.22;;;8.90;78.80;;;;;;4933621;29;20051;-67
2021/12/08 09:11:36;;;;;;;11.57;4.60;;;8.90;78.40;;;;;;4933355;29;20050;-69
2021/12/08 09:15:03;;;;;;;6.28;3.75;;;9.00;78.20;;;;;;4933865;29;20311;-68
2021/12/08 09:18:12;;;;;;;7.55;3.97;;;9.10;77.30;;;;;;4933788;29;20054;-68
2021/12/08 09:21:21;;;;;;;16.38;4.30;;;9.30;77.70;;;;;;4933301;29;20047;-67
2021/12/08 09:24:48;;;;;;;8.43;4.95;;;9.50;76.70;;;;;;4936592;29;20120;-67
2021/12/08 09:27:58;;;;;;;10.70;4.72;;;9.60;77.40;;;;;;4937552;29;20056;-68
2021/12/08 09:31:18;;;;;;;8.13;4.53;;;10.00;76.00;;;;;;4937097;29;20050;-68
2021/12/08 09:34:30;;;;;;;5.10;3.13;;;10.30;77.00;;;;;;4934635;29;20063;-67
2021/12/08 09:37:40;;;;;;;9.32;4.35;;;10.50;74.30;;;;;;4935423;29;20341;-67
2021/12/08 09:40:44;;;;;;;9.88;4.57;;;10.80;75.10;;;;;;4935615;29;20055;-68
2021/12/08 09:43:56;;;;;;;7.35;4.15;;;11.00;74.10;;;;;;4936009;29;20055;-67
2021/12/08 09:47:01;;;;;;;9.77;4.95;;;11.00;73.70;;;;;;4936076;29;20305;-68
2021/12/08 09:50:10;;;;;;;9.60;4.93;;;11.00;74.00;;;;;;4936892;29;20043;-67
2021/12/08 09:53:14;;;;;;;7.95;4.95;;;10.90;74.90;;;;;;4936772;29;20557;-68
2021/12/08 09:56:19;;;;;;;8.20;4.72;;;10.80;75.60;;;;;;4936950;29;20303;-68
2021/12/08 09:59:23;;;;;;;8.13;4.93;;;10.70;75.50;;;;;;4936585;29;20062;-69
2021/12/08 10:02:36;;;;;;;12.88;5.15;;;10.70;76.60;;;;;;4936410;29;20043;-68
2021/12/08 10:05:41;;;;;;;12.48;5.32;;;10.70;76.70;;;;;;4936598;29;20412;-68
2021/12/08 10:08:46;;;;;;;9.65;5.50;;;10.80;76.00;;;;;;4936861;29;20078;-69
2021/12/08 10:11:54;;;;;;;9.77;5.43;;;11.00;76.40;;;;;;4936296;29;20059;-67
2021/12/08 10:14:58;;;;;;;8.75;5.65;;;11.10;76.60;;;;;;4936768;29;20054;-68
2021/12/08 10:18:02;;;;;;;9.25;4.65;;;11.20;75.90;;;;;;4936439;29;20396;-69
2021/12/08 10:21:07;;;;;;;13.27;4.88;;;11.30;74.90;;;;;;4936069;29;20062;-69
2021/12/08 10:24:21;;;;;;;6.82;4.00;;;11.40;75.30;;;;;;4936207;29;20059;-68
2021/12/08 10:27:26;;;;;;;8.73;3.97;;;11.50;75.10;;;;;;4936204;29;20043;-69
2021/12/08 10:30:32;;;;;;;7.03;3.95;;;11.60;75.50;;;;;;4936384;29;20055;-68
2021/12/08 10:37:17;;;;;;;6.38;2.78;;;11.80;75.00;;;;;;4935606;29;20055;-68
2021/12/08 10:40:22;;;;;;;5.28;2.67;;;11.90;74.60;;;;;;4935950;29;20074;-68
2021/12/08 10:43:25;;;;;;;7.05;2.72;;;11.70;74.80;;;;;;4936026;29;20051;-67
2021/12/08 10:46:36;;;;;;;5.60;2.78;;;11.70;74.40;;;;;;4935323;29;20066;-69
2021/12/08 10:56:38;;;;;;;8.40;3.30;;;11.70;76.40;;;;;;4935729;29;20039;-68
2021/12/08 11:00:12;;;;;;;9.13;3.22;;;11.70;76.50;;;;;;4935240;29;20092;-70
2021/12/08 11:03:16;;;;;;;5.72;3.10;;;11.80;75.70;;;;;;4935328;29;20078;-69
2021/12/08 11:06:20;;;;;;;5.28;3.22;;;11.70;75.70;;;;;;4935385;29;20063;-69
2021/12/08 11:09:24;;;;;;;5.10;2.75;;;11.70;76.10;;;;;;4935370;29;20051;-69
2021/12/08 11:12:39;;;;;;;4.03;2.50;;;11.70;75.70;;;;;;4935091;29;20054;-67
2021/12/08 11:15:44;;;;;;;6.57;2.70;;;11.70;76.00;;;;;;4935484;29;20046;-69
2021/12/08 11:19:10;;;;;;;12.10;4.82;;;11.70;76.90;;;;;;4935196;29;20054;-68
2021/12/08 11:22:16;;;;;;;6.15;3.40;;;11.70;76.90;;;;;;4935372;29;20054;-68
2021/12/08 11:25:39;;;;;;;10.77;4.78;;;11.70;76.60;;;;;;4935176;29;20055;-70
2021/12/08 11:28:45;;;;;;;8.90;4.50;;;11.70;76.50;;;;;;4935214;29;20043;-68
2021/12/08 11:31:49;;;;;;;9.70;4.13;;;11.70;76.30;;;;;;4935092;29;20483;-69
2021/12/08 11:34:55;;;;;;;26.95;15.45;;;11.70;76.50;;;;;;4935047;29;20067;-68
2021/12/08 11:38:00;;;;;;;13.65;6.47;;;11.60;76.90;;;;;;4935152;29;20412;-68
2021/12/08 11:41:32;;;;;;;9.60;5.20;;;11.60;76.20;;;;;;4934910;29;20058;-68
2021/12/08 11:44:41;;;;;;;15.80;7.00;;;11.60;77.10;;;;;;4934971;29;20050;-70
2021/12/08 11:47:46;;;;;;;11.27;6.00;;;11.60;77.60;;;;;;4934825;29;20391;-67
2021/12/08 11:51:07;;;;;;;8.25;5.28;;;11.60;78.50;;;;;;4934518;29;20412;-69
2021/12/08 11:54:24;;;;;;;9.13;5.30;;;11.60;79.10;;;;;;4934653;29;20407;-69
2021/12/08 11:57:39;;;;;;;9.93;4.70;;;11.60;79.90;;;;;;4934967;29;20043;-69
2021/12/08 12:00:48;;;;;;;6.53;4.03;;;11.70;80.00;;;;;;4934409;29;20054;-67
2021/12/08 12:03:52;;;;;;;7.70;3.95;;;11.70;80.50;;;;;;4934595;29;20042;-68
2021/12/08 12:06:56;;;;;;;8.68;3.30;;;11.70;80.50;;;;;;4934586;29;20567;-69
2021/12/08 12:10:00;;;;;;;7.03;3.70;;;11.70;80.80;;;;;;4934499;29;20076;-69
2021/12/08 12:13:08;;;;;;;8.55;4.22;;;11.80;80.90;;;;;;4934319;29;20054;-71
2021/12/08 12:16:13;;;;;;;11.98;4.60;;;11.70;80.90;;;;;;4934051;29;20503;-68
2021/12/08 12:19:21;;;;;;;12.05;4.88;;;11.70;81.10;;;;;;4934274;29;20050;-70
2021/12/08 12:22:41;;;;;;;7.72;4.55;;;11.70;81.90;;;;;;4934144;29;20097;-69
2021/12/08 12:26:00;;;;;;;9.57;5.47;;;11.60;82.30;;;;;;4934312;29;20038;-69
2021/12/08 12:29:13;;;;;;;12.50;4.25;;;11.70;82.50;;;;;;4934111;29;20495;-68
2021/12/08 12:32:36;;;;;;;9.57;3.85;;;11.70;82.70;;;;;;4933921;29;20051;-69
2021/12/08 12:35:56;;;;;;;7.57;4.07;;;11.70;83.00;;;;;;4933809;29;20050;-67
2021/12/08 12:39:14;;;;;;;8.57;5.25;;;11.80;83.90;;;;;;4933772;29;20528;-69
2021/12/08 12:42:20;;;;;;;8.23;4.18;;;11.80;83.90;;;;;;4933850;29;20055;-68
2021/12/08 12:45:26;;;;;;;8.40;4.22;;;11.70;84.30;;;;;;4934156;29;20042;-70
2021/12/08 12:48:31;;;;;;;5.55;3.88;;;11.80;85.00;;;;;;4933978;29;20058;-69
2021/12/08 12:51:57;;;;;;;7.63;4.97;;;11.70;85.60;;;;;;4933970;29;20050;-68
2021/12/08 12:55:15;;;;;;;6.38;4.20;;;11.80;86.20;;;;;;4934020;29;20055;-68
2021/12/08 12:58:19;;;;;;;7.53;4.00;;;11.70;86.50;;;;;;4933838;29;20046;-68
2021/12/08 13:01:33;;;;;;;14.60;4.88;;;11.70;87.20;;;;;;4933564;29;20056;-67
2021/12/08 13:04:53;;;;;;;7.60;3.60;;;11.70;88.40;;;;;;4933527;29;20059;-69
2021/12/08 13:07:59;;;;;;;8.23;3.33;;;11.70;89.40;;;;;;4932681;29;20392;-69
2021/12/08 13:11:27;;;;;;;8.95;3.10;;;11.70;89.90;;;;;;4931627;29;20511;-67
2021/12/08 13:14:31;;;;;;;5.90;3.63;;;11.60;89.80;;;;;;4930834;29;20725;-68
2021/12/08 13:17:36;;;;;;;8.02;3.50;;;11.60;90.10;;;;;;4931524;29;20404;-68
2021/12/08 13:20:43;;;;;;;7.03;3.78;;;11.60;90.20;;;;;;4930831;29;20058;-66
2021/12/08 13:23:48;;;;;;;8.10;3.88;;;11.50;90.40;;;;;;4932021;29;20046;-69
2021/12/08 13:27:04;;;;;;;11.85;3.58;;;11.50;90.40;;;;;;4933499;29;20062;-69
2021/12/08 13:30:11;;;;;;;8.93;3.58;;;11.50;90.50;;;;;;4933879;29;20524;-68
2021/12/08 13:34:00;;;;;;;5.70;3.22;;;11.60;90.60;;;;;;4933312;29;20055;-68
2021/12/08 13:37:23;;;;;;;6.90;3.80;;;11.60;90.60;;;;;;4932873;29;20055;-68
2021/12/08 13:40:47;;;;;;;12.98;5.00;;;11.60;90.60;;;;;;4932913;29;20059;-68
2021/12/08 13:43:52;;;;;;;12.88;4.50;;;11.60;90.70;;;;;;4932868;29;20050;-68
2021/12/08 13:46:57;;;;;;;8.80;4.35;;;11.60;90.90;;;;;;4932989;29;20051;-68
2021/12/08 13:50:19;;;;;;;11.55;4.38;;;11.60;91.10;;;;;;4933787;29;20059;-68
2021/12/08 13:53:23;;;;;;;13.50;5.45;;;11.60;91.90;;;;;;4932297;29;20043;-68
2021/12/08 13:56:40;;;;;;;8.40;4.88;;;11.50;92.30;;;;;;4933127;29;20162;-69
2021/12/08 13:59:47;;;;;;;10.98;4.80;;;11.50;92.70;;;;;;4932921;29;20066;-67
2021/12/08 14:03:03;;;;;;;12.60;5.65;;;11.50;93.20;;;;;;4933465;29;20101;-68
2021/12/08 14:06:09;;;;;;;10.70;5.20;;;11.40;93.80;;;;;;4933279;29;20067;-68
2021/12/08 14:09:15;;;;;;;9.00;5.55;;;11.40;94.60;;;;;;4934452;29;20042;-67
2021/12/08 14:12:20;;;;;;;8.77;4.53;;;11.30;95.40;;;;;;4935856;29;20046;-67
2021/12/08 14:15:48;;;;;;;9.55;4.90;;;11.20;96.00;;;;;;4935677;29;20068;-70
2021/12/08 14:18:53;;;;;;;13.73;5.38;;;11.20;96.70;;;;;;4936628;29;20307;-67
2021/12/08 14:22:00;;;;;;;7.80;5.72;;;11.10;97.10;;;;;;4936450;29;20054;-67
2021/12/08 14:25:05;;;;;;;8.88;5.50;;;11.00;97.70;;;;;;4935977;29;20502;-69
2021/12/08 14:28:28;;;;;;;11.73;6.70;;;11.00;98.20;;;;;;4936638;29;20062;-68
2021/12/08 14:31:38;;;;;;;12.95;7.38;;;11.00;98.50;;;;;;4936705;29;20043;-69
2021/12/08 14:34:43;;;;;;;11.48;5.85;;;11.00;99.00;;;;;;4936550;29;20050;-68
2021/12/08 14:37:47;;;;;;;8.77;5.63;;;10.90;99.60;;;;;;4934408;29;20066;-68
2021/12/08 14:40:52;;;;;;;10.73;5.78;;;10.80;99.90;;;;;;4934582;29;20074;-69
2021/12/08 14:44:17;;;;;;;11.02;5.55;;;10.80;99.90;;;;;;4935518;29;20059;-69
2021/12/08 14:47:26;;;;;;;12.00;4.97;;;10.70;99.90;;;;;;4935607;29;20696;-69
2021/12/08 14:50:30;;;;;;;8.52;4.75;;;10.60;99.90;;;;;;4935866;29;20047;-69
2021/12/08 14:53:35;;;;;;;10.43;4.82;;;10.60;99.90;;;;;;4935994;29;20048;-67
2021/12/08 14:56:40;;;;;;;7.50;4.43;;;10.60;99.90;;;;;;4935700;29;20038;-68
2021/12/08 14:59:49;;;;;;;9.45;4.88;;;10.60;99.90;;;;;;4935296;29;20496;-70
2021/12/08 15:02:59;;;;;;;7.63;4.82;;;10.60;99.90;;;;;;4935514;29;20455;-68
2021/12/08 15:06:03;;;;;;;8.30;4.97;;;10.60;99.90;;;;;;4935782;29;20046;-69
2021/12/08 15:09:13;;;;;;;10.23;5.60;;;10.60;99.90;;;;;;4935870;29;20050;-71
2021/12/08 15:12:20;;;;;;;13.00;6.43;;;10.60;99.90;;;;;;4935797;29;20055;-71
2021/12/08 15:15:25;;;;;;;8.57;5.95;;;10.60;99.90;;;;;;4935430;29;20042;-67
2021/12/08 15:18:30;;;;;;;9.93;5.38;;;10.60;99.90;;;;;;4935506;29;20047;-68
2021/12/08 15:21:39;;;;;;;9.70;6.15;;;10.60;99.90;;;;;;4934451;29;20059;-68
2021/12/08 15:24:43;;;;;;;10.98;6.40;;;10.60;99.90;;;;;;4935296;29;20046;-69
2021/12/08 15:27:53;;;;;;;17.02;9.20;;;10.60;99.90;;;;;;4935351;29;20247;-68
2021/12/08 15:30:58;;;;;;;12.07;7.10;;;10.60;99.90;;;;;;4935057;29;20495;-69
2021/12/08 15:34:23;;;;;;;11.23;5.88;;;10.60;99.90;;;;;;4935341;29;20050;-67
2021/12/08 15:37:31;;;;;;;10.98;6.10;;;10.60;99.90;;;;;;4935135;29;20539;-67
2021/12/08 15:40:38;;;;;;;12.15;6.15;;;10.60;99.90;;;;;;4934975;29;20054;-68
2021/12/08 15:43:43;;;;;;;10.98;5.78;;;10.60;99.90;;;;;;4935566;29;20051;-67
2021/12/08 15:46:49;;;;;;;12.52;6.10;;;10.60;99.90;;;;;;4935016;29;20408;-69
2021/12/08 15:49:53;;;;;;;16.27;6.80;;;10.60;99.90;;;;;;4934741;29;20039;-68
2021/12/08 15:53:00;;;;;;;11.82;6.07;;;10.60;99.90;;;;;;4934932;29;20327;-69
2021/12/08 15:56:12;;;;;;;7.53;5.47;;;10.70;99.90;;;;;;4934796;29;20499;-72
2021/12/08 15:59:29;;;;;;;11.25;6.90;;;10.70;99.90;;;;;;4932476;29;20059;-74
2021/12/08 16:02:33;;;;;;;10.13;6.28;;;10.70;99.90;;;;;;4930843;29;20054;-74
2021/12/08 16:05:38;;;;;;;11.65;5.80;;;10.70;99.90;;;;;;4932607;29;20125;-73
2021/12/08 16:08:44;;;;;;;8.52;5.68;;;10.70;99.90;;;;;;4932757;29;20561;-74
2021/12/08 16:11:59;;;;;;;15.07;8.05;;;10.70;99.90;;;;;;4933079;29;20047;-74
2021/12/08 16:15:05;;;;;;;10.38;5.28;;;10.70;99.90;;;;;;4933440;29;20511;-74
2021/12/08 16:18:10;;;;;;;11.70;5.78;;;10.80;99.90;;;;;;4934244;29;20038;-75
2021/12/08 16:21:20;;;;;;;10.88;5.65;;;10.80;99.90;;;;;;4934247;29;20055;-74
2021/12/08 16:24:24;;;;;;;13.30;6.38;;;10.80;99.90;;;;;;4933520;29;20050;-72
2021/12/08 16:27:30;;;;;;;11.90;6.65;;;10.90;99.90;;;;;;4933399;29;20050;-74
2021/12/08 16:30:34;;;;;;;15.60;7.53;;;10.80;99.90;;;;;;4933968;29;20087;-74
2021/12/08 16:33:38;;;;;;;13.50;7.88;;;10.90;99.90;;;;;;4934286;29;20310;-74
2021/12/08 16:36:42;;;;;;;12.05;6.55;;;10.90;99.90;;;;;;4933694;29;20140;-73
2021/12/08 16:43:00;;;;;;;14.15;8.65;;;10.90;99.90;;;;;;4933684;29;20507;-74
2021/12/08 16:46:05;;;;;;;14.95;8.82;;;10.90;99.90;;;;;;4933652;29;20051;-73
2021/12/08 16:49:09;;;;;;;12.90;8.32;;;10.90;99.90;;;;;;4933808;29;20420;-74
2021/12/08 16:52:13;;;;;;;18.30;9.13;;;10.90;99.90;;;;;;4933838;29;20046;-74
2021/12/08 16:55:20;;;;;;;14.50;8.82;;;10.90;99.90;;;;;;4934117;29;20043;-73
2021/12/08 16:58:27;;;;;;;17.98;8.90;;;10.80;99.90;;;;;;4933433;29;20051;-73
2021/12/08 17:01:31;;;;;;;15.82;9.43;;;10.80;99.90;;;;;;4933375;29;20054;-72
2021/12/08 17:04:35;;;;;;;14.48;9.23;;;10.90;99.90;;;;;;4933659;29;20043;-75
2021/12/08 17:07:39;;;;;;;13.88;7.15;;;10.80;99.90;;;;;;4933416;29;20078;-73
2021/12/08 17:10:46;;;;;;;12.23;5.90;;;10.90;99.90;;;;;;4932716;29;20499;-74
2021/12/08 17:13:50;;;;;;;13.25;6.57;;;10.90;99.90;;;;;;4933723;29;20397;-73
2021/12/08 17:16:54;;;;;;;12.18;6.25;;;10.90;99.90;;;;;;4933460;29;20090;-74
2021/12/08 17:19:58;;;;;;;14.35;6.45;;;10.90;99.90;;;;;;4933335;29;20062;-73